sensor_id;sensor_type;location;lat;lon;timestamp;temperature;humidity
3756;DHT22;1893;52.526;13.360;2023-02-01T00:01:39;4.50;99.90
3756;DHT22;1893;52.526;13.360;2023-02-01T00:04:04;4.60;99.90
3756;DHT22;1893;52.526;13.360;2023-02-01T00:06:30;4.50;99.90
3756;DHT22;1893;52.526;13.360;2023-02-01T00:08:56;4.50;99.90
3756;DHT22;1893;52.526;13.360;2023-02-01T00:11:22;4.40;99.90
3756;DHT22;1893;52.526;13.360;2023-02-01T00:13:49;4.40;99.90
3756;DHT22;1893;52.526;13.360;2023-02-01T00:18:42;4.50;99.90
3756;DHT22;1893;52.526;13.360;2023-02-01T00:21:10;4.40;99.90
3756;DHT22;1893;52.526;13.360;2023-02-01T00:23:37;4.40;99.90
3756;DHT22;1893;52.526;13.360;2023-02-01T00:26:04;4.50;99.90
3756;DHT22;1893;52.526;13.360;2023-02-01T00:28:30;4.50;99.90
3756;DHT22;1893;52.526;13.360;2023-02-01T00:31:01;4.60;99.90
3756;DHT22;1893;52.526;13.360;2023-02-01T00:33:28;4.60;99.90
3756;DHT22;1893;52.526;13.360;2023-02-01T00:36:02;4.50;99.90
3756;DHT22;1893;52.526;13.360;2023-02-01T00:38:29;4.50;99.90
3756;DHT22;1893;52.526;13.360;2023-02-01T00:41:05;4.50;99.90
3756;DHT22;1893;52.526;13.360;2023-02-01T00:43:32;4.50;99.90
3756;DHT22;1893;52.526;13.360;2023-02-01T00:45:58;4.50;99.90
3756;DHT22;1893;52.526;13.360;2023-02-01T00:48:24;4.40;99.90
3756;DHT22;1893;52.526;13.360;2023-02-01T00:50:49;4.40;99.90
3756;DHT22;1893;52.526;13.360;2023-02-01T00:53:15;4.40;99.90
3756;DHT22;1893;52.526;13.360;2023-02-01T00:55:44;4.30;99.90
3756;DHT22;1893;52.526;13.360;2023-02-01T00:58:10;4.30;99.90
3756;DHT22;1893;52.526;13.360;2023-02-01T01:00:36;4.30;99.90
3756;DHT22;1893;52.526;13.360;2023-02-01T01:03:02;4.30;99.90
3756;DHT22;1893;52.526;13.360;2023-02-01T01:05:27;4.20;99.90
3756;DHT22;1893;52.526;13.360;2023-02-01T01:07:53;4.10;99.90
3756;DHT22;1893;52.526;13.360;2023-02-01T01:10:19;4.10;99.90
3756;DHT22;1893;52.526;13.360;2023-02-01T01:12:45;4.10;99.90
3756;DHT22;1893;52.526;13.360;2023-02-01T01:15:10;4.00;99.90
3756;DHT22;1893;52.526;13.360;2023-02-01T01:17:36;4.00;99.90
3756;DHT22;1893;52.526;13.360;2023-02-01T01:20:03;4.00;99.90
3756;DHT22;1893;52.526;13.360;2023-02-01T01:22:28;4.00;99.90
3756;DHT22;1893;52.526;13.360;2023-02-01T01:24:54;4.00;99.90
3756;DHT22;1893;52.526;13.360;2023-02-01T01:27:20;4.00;99.90
3756;DHT22;1893;52.526;13.360;2023-02-01T01:29:49;4.00;99.90
3756;DHT22;1893;52.526;13.360;2023-02-01T01:32:15;4.10;99.90
3756;DHT22;1893;52.526;13.360;2023-02-01T01:34:41;4.00;99.90
3756;DHT22;1893;52.526;13.360;2023-02-01T01:37:06;4.00;99.90
3756;DHT22;1893;52.526;13.360;2023-02-01T01:39:32;4.00;99.90
3756;DHT22;1893;52.526;13.360;2023-02-01T01:41:57;4.00;99.90
3756;DHT22;1893;52.526;13.360;2023-02-01T01:47:37;4.00;99.90
3756;DHT22;1893;52.526;13.360;2023-02-01T01:50:07;4.10;99.90
3756;DHT22;1893;52.526;13.360;2023-02-01T01:52:34;4.10;99.90
3756;DHT22;1893;52.526;13.360;2023-02-01T01:55:00;4.20;99.90
3756;DHT22;1893;52.526;13.360;2023-02-01T01:57:32;4.30;99.90
3756;DHT22;1893;52.526;13.360;2023-02-01T02:00:18;4.20;99.90
3756;DHT22;1893;52.526;13.360;2023-02-01T02:02:47;4.20;99.90
3756;DHT22;1893;52.526;13.360;2023-02-01T02:05:15;4.20;99.90
3756;DHT22;1893;52.526;13.360;2023-02-01T02:07:45;4.30;99.90
3756;DHT22;1893;52.526;13.360;2023-02-01T02:10:12;4.30;99.90
3756;DHT22;1893;52.526;13.360;2023-02-01T02:12:42;4.30;99.90
3756;DHT22;1893;52.526;13.360;2023-02-01T02:15:09;4.40;99.90
3756;DHT22;1893;52.526;13.360;2023-02-01T02:17:57;4.30;99.90
3756;DHT22;1893;52.526;13.360;2023-02-01T02:21:02;4.30;99.90
3756;DHT22;1893;52.526;13.360;2023-02-01T02:31:46;4.30;99.90
3756;DHT22;1893;52.526;13.360;2023-02-01T02:34:24;4.20;99.90
3756;DHT22;1893;52.526;13.360;2023-02-01T02:37:28;4.30;99.90
3756;DHT22;1893;52.526;13.360;2023-02-01T02:40:07;4.30;99.90
3756;DHT22;1893;52.526;13.360;2023-02-01T02:46:24;4.30;99.90
3756;DHT22;1893;52.526;13.360;2023-02-01T02:51:53;4.30;99.90
3756;DHT22;1893;52.526;13.360;2023-02-01T02:54:43;4.40;99.90
3756;DHT22;1893;52.526;13.360;2023-02-01T03:00:08;4.20;99.90
3756;DHT22;1893;52.526;13.360;2023-02-01T03:02:53;4.30;99.90
3756;DHT22;1893;52.526;13.360;2023-02-01T03:05:43;4.30;99.90
3756;DHT22;1893;52.526;13.360;2023-02-01T03:08:10;4.40;99.90
3756;DHT22;1893;52.526;13.360;2023-02-01T03:16:18;4.40;99.90
3756;DHT22;1893;52.526;13.360;2023-02-01T03:24:04;4.40;99.90
3756;DHT22;1893;52.526;13.360;2023-02-01T03:26:37;4.30;99.90
3756;DHT22;1893;52.526;13.360;2023-02-01T03:29:16;4.30;99.90
3756;DHT22;1893;52.526;13.360;2023-02-01T03:31:43;4.30;99.90
3756;DHT22;1893;52.526;13.360;2023-02-01T03:34:10;4.30;99.90
3756;DHT22;1893;52.526;13.360;2023-02-01T03:36:51;4.30;99.90
3756;DHT22;1893;52.526;13.360;2023-02-01T03:41:52;4.30;99.90
3756;DHT22;1893;52.526;13.360;2023-02-01T03:46:54;4.30;99.90
3756;DHT22;1893;52.526;13.360;2023-02-01T03:49:29;4.30;99.90
3756;DHT22;1893;52.526;13.360;2023-02-01T03:51:58;4.40;99.90
3756;DHT22;1893;52.526;13.360;2023-02-01T03:54:26;4.40;99.90
3756;DHT22;1893;52.526;13.360;2023-02-01T03:56:55;4.40;99.90
3756;DHT22;1893;52.526;13.360;2023-02-01T03:59:22;4.50;99.90
3756;DHT22;1893;52.526;13.360;2023-02-01T04:01:47;4.50;99.90
3756;DHT22;1893;52.526;13.360;2023-02-01T04:04:13;4.50;99.90
3756;DHT22;1893;52.526;13.360;2023-02-01T04:06:46;4.70;99.90
3756;DHT22;1893;52.526;13.360;2023-02-01T04:09:12;4.60;99.90
3756;DHT22;1893;52.526;13.360;2023-02-01T04:11:37;4.60;99.90
3756;DHT22;1893;52.526;13.360;2023-02-01T04:14:03;4.60;99.90
3756;DHT22;1893;52.526;13.360;2023-02-01T04:16:30;4.60;99.90
3756;DHT22;1893;52.526;13.360;2023-02-01T04:18:57;4.70;99.90
3756;DHT22;1893;52.526;13.360;2023-02-01T04:21:24;4.70;99.90
3756;DHT22;1893;52.526;13.360;2023-02-01T04:23:50;4.70;99.90
3756;DHT22;1893;52.526;13.360;2023-02-01T04:26:16;4.70;99.90
3756;DHT22;1893;52.526;13.360;2023-02-01T04:28:42;4.80;99.90
3756;DHT22;1893;52.526;13.360;2023-02-01T04:31:07;4.80;99.90
3756;DHT22;1893;52.526;13.360;2023-02-01T04:33:33;4.80;99.90
3756;DHT22;1893;52.526;13.360;2023-02-01T04:35:58;4.90;99.90
3756;DHT22;1893;52.526;13.360;2023-02-01T04:38:24;4.80;99.90
3756;DHT22;1893;52.526;13.360;2023-02-01T04:40:50;4.80;99.90
3756;DHT22;1893;52.526;13.360;2023-02-01T04:43:17;4.90;99.90
3756;DHT22;1893;52.526;13.360;2023-02-01T04:45:47;4.90;99.90
3756;DHT22;1893;52.526;13.360;2023-02-01T04:48:13;4.90;99.90
3756;DHT22;1893;52.526;13.360;2023-02-01T04:50:39;5.00;99.90
3756;DHT22;1893;52.526;13.360;2023-02-01T04:53:05;5.00;99.90
3756;DHT22;1893;52.526;13.360;2023-02-01T04:55:30;5.00;99.90
3756;DHT22;1893;52.526;13.360;2023-02-01T04:57:56;5.00;99.90
3756;DHT22;1893;52.526;13.360;2023-02-01T05:00:22;5.10;99.90
3756;DHT22;1893;52.526;13.360;2023-02-01T05:02:47;5.00;99.90
3756;DHT22;1893;52.526;13.360;2023-02-01T05:05:13;5.00;99.90
3756;DHT22;1893;52.526;13.360;2023-02-01T05:07:39;5.10;99.90
3756;DHT22;1893;52.526;13.360;2023-02-01T05:10:05;5.10;99.90
3756;DHT22;1893;52.526;13.360;2023-02-01T05:12:30;5.10;99.90
3756;DHT22;1893;52.526;13.360;2023-02-01T05:15:15;5.10;99.90
3756;DHT22;1893;52.526;13.360;2023-02-01T05:17:40;5.10;99.90
3756;DHT22;1893;52.526;13.360;2023-02-01T05:20:07;5.10;99.90
3756;DHT22;1893;52.526;13.360;2023-02-01T05:22:33;5.10;99.90
3756;DHT22;1893;52.526;13.360;2023-02-01T05:24:58;5.10;99.90
3756;DHT22;1893;52.526;13.360;2023-02-01T05:27:24;5.20;99.90
3756;DHT22;1893;52.526;13.360;2023-02-01T05:29:50;5.10;99.90
3756;DHT22;1893;52.526;13.360;2023-02-01T05:32:15;5.10;99.90
3756;DHT22;1893;52.526;13.360;2023-02-01T05:34:42;5.20;99.90
3756;DHT22;1893;52.526;13.360;2023-02-01T05:37:08;5.10;99.90
3756;DHT22;1893;52.526;13.360;2023-02-01T05:39:33;5.20;99.90
3756;DHT22;1893;52.526;13.360;2023-02-01T05:41:59;5.10;99.90
3756;DHT22;1893;52.526;13.360;2023-02-01T05:44:24;5.20;99.90
3756;DHT22;1893;52.526;13.360;2023-02-01T05:46:50;5.20;99.90
3756;DHT22;1893;52.526;13.360;2023-02-01T05:49:17;5.20;99.90
3756;DHT22;1893;52.526;13.360;2023-02-01T05:51:43;5.20;99.90
3756;DHT22;1893;52.526;13.360;2023-02-01T05:54:09;5.10;99.90
3756;DHT22;1893;52.526;13.360;2023-02-01T05:56:35;5.10;99.90
3756;DHT22;1893;52.526;13.360;2023-02-01T06:02:22;5.20;99.90
3756;DHT22;1893;52.526;13.360;2023-02-01T06:04:49;5.20;99.90
3756;DHT22;1893;52.526;13.360;2023-02-01T06:07:15;5.20;99.90
3756;DHT22;1893;52.526;13.360;2023-02-01T06:09:41;5.20;99.90
3756;DHT22;1893;52.526;13.360;2023-02-01T06:12:06;5.20;99.90
3756;DHT22;1893;52.526;13.360;2023-02-01T06:14:32;5.20;99.90
3756;DHT22;1893;52.526;13.360;2023-02-01T06:16:58;5.10;99.90
3756;DHT22;1893;52.526;13.360;2023-02-01T06:19:24;5.10;99.90
3756;DHT22;1893;52.526;13.360;2023-02-01T06:21:49;5.00;99.90
3756;DHT22;1893;52.526;13.360;2023-02-01T06:24:15;5.00;99.90
3756;DHT22;1893;52.526;13.360;2023-02-01T06:26:41;5.00;99.90
3756;DHT22;1893;52.526;13.360;2023-02-01T06:29:09;5.00;99.90
3756;DHT22;1893;52.526;13.360;2023-02-01T06:31:35;5.00;99.90
3756;DHT22;1893;52.526;13.360;2023-02-01T06:34:01;4.90;99.90
3756;DHT22;1893;52.526;13.360;2023-02-01T06:36:28;4.90;99.90
3756;DHT22;1893;52.526;13.360;2023-02-01T06:38:55;4.90;99.90
3756;DHT22;1893;52.526;13.360;2023-02-01T06:41:22;4.80;99.90
3756;DHT22;1893;52.526;13.360;2023-02-01T06:43:48;4.80;99.90
3756;DHT22;1893;52.526;13.360;2023-02-01T06:46:14;4.80;99.90
3756;DHT22;1893;52.526;13.360;2023-02-01T06:48:39;4.80;99.90
3756;DHT22;1893;52.526;13.360;2023-02-01T06:51:05;4.80;99.90
3756;DHT22;1893;52.526;13.360;2023-02-01T06:53:31;4.80;99.90
3756;DHT22;1893;52.526;13.360;2023-02-01T06:55:59;4.80;99.90
3756;DHT22;1893;52.526;13.360;2023-02-01T06:58:28;4.90;99.90
3756;DHT22;1893;52.526;13.360;2023-02-01T07:00:54;4.90;99.90
3756;DHT22;1893;52.526;13.360;2023-02-01T07:03:20;4.90;99.90
3756;DHT22;1893;52.526;13.360;2023-02-01T07:05:45;4.90;99.90
3756;DHT22;1893;52.526;13.360;2023-02-01T07:08:11;4.90;99.90
3756;DHT22;1893;52.526;13.360;2023-02-01T07:10:37;4.90;99.90
3756;DHT22;1893;52.526;13.360;2023-02-01T07:13:03;4.90;99.90
3756;DHT22;1893;52.526;13.360;2023-02-01T07:15:29;5.00;99.90
3756;DHT22;1893;52.526;13.360;2023-02-01T07:17:55;4.90;99.90
3756;DHT22;1893;52.526;13.360;2023-02-01T07:20:20;4.90;99.90
3756;DHT22;1893;52.526;13.360;2023-02-01T07:22:46;4.90;99.90
3756;DHT22;1893;52.526;13.360;2023-02-01T07:25:12;4.90;99.90
3756;DHT22;1893;52.526;13.360;2023-02-01T07:27:37;4.90;99.90
3756;DHT22;1893;52.526;13.360;2023-02-01T07:30:04;4.90;99.90
3756;DHT22;1893;52.526;13.360;2023-02-01T07:32:30;4.80;99.90
3756;DHT22;1893;52.526;13.360;2023-02-01T07:34:56;4.80;99.90
3756;DHT22;1893;52.526;13.360;2023-02-01T07:37:22;4.80;99.90
3756;DHT22;1893;52.526;13.360;2023-02-01T07:39:49;4.90;99.90
3756;DHT22;1893;52.526;13.360;2023-02-01T07:42:15;4.90;99.90
3756;DHT22;1893;52.526;13.360;2023-02-01T07:44:40;4.90;99.90
3756;DHT22;1893;52.526;13.360;2023-02-01T07:47:06;5.00;99.90
3756;DHT22;1893;52.526;13.360;2023-02-01T07:49:32;4.70;99.90
3756;DHT22;1893;52.526;13.360;2023-02-01T07:51:57;4.60;99.90
3756;DHT22;1893;52.526;13.360;2023-02-01T07:54:23;4.60;99.90
3756;DHT22;1893;52.526;13.360;2023-02-01T07:56:49;4.50;99.90
3756;DHT22;1893;52.526;13.360;2023-02-01T07:59:15;4.30;99.90
3756;DHT22;1893;52.526;13.360;2023-02-01T08:01:41;4.30;99.90
3756;DHT22;1893;52.526;13.360;2023-02-01T08:04:10;4.20;99.90
3756;DHT22;1893;52.526;13.360;2023-02-01T08:06:37;4.10;99.90
3756;DHT22;1893;52.526;13.360;2023-02-01T08:09:06;4.00;99.90
3756;DHT22;1893;52.526;13.360;2023-02-01T08:11:33;4.10;99.90
3756;DHT22;1893;52.526;13.360;2023-02-01T08:13:59;3.90;99.90
3756;DHT22;1893;52.526;13.360;2023-02-01T08:16:24;4.00;99.90
3756;DHT22;1893;52.526;13.360;2023-02-01T08:18:50;3.90;99.90
3756;DHT22;1893;52.526;13.360;2023-02-01T08:21:19;3.80;99.90
3756;DHT22;1893;52.526;13.360;2023-02-01T08:23:45;3.80;99.90
3756;DHT22;1893;52.526;13.360;2023-02-01T08:26:23;3.80;99.90
3756;DHT22;1893;52.526;13.360;2023-02-01T08:28:52;3.80;99.90
3756;DHT22;1893;52.526;13.360;2023-02-01T08:31:19;3.80;99.90
3756;DHT22;1893;52.526;13.360;2023-02-01T08:33:50;3.80;99.90
3756;DHT22;1893;52.526;13.360;2023-02-01T08:36:16;3.80;99.90
3756;DHT22;1893;52.526;13.360;2023-02-01T08:38:41;3.80;99.90
3756;DHT22;1893;52.526;13.360;2023-02-01T08:41:10;3.90;99.90
3756;DHT22;1893;52.526;13.360;2023-02-01T08:43:36;3.80;99.90
3756;DHT22;1893;52.526;13.360;2023-02-01T08:46:03;3.80;99.90
3756;DHT22;1893;52.526;13.360;2023-02-01T08:48:30;3.90;99.90
3756;DHT22;1893;52.526;13.360;2023-02-01T08:50:57;3.80;99.90
3756;DHT22;1893;52.526;13.360;2023-02-01T08:53:23;3.80;99.90
3756;DHT22;1893;52.526;13.360;2023-02-01T08:55:48;3.80;99.90
3756;DHT22;1893;52.526;13.360;2023-02-01T08:58:14;3.80;99.90
3756;DHT22;1893;52.526;13.360;2023-02-01T09:00:43;3.80;99.90
3756;DHT22;1893;52.526;13.360;2023-02-01T09:03:10;3.80;99.90
3756;DHT22;1893;52.526;13.360;2023-02-01T09:05:36;3.80;99.90
3756;DHT22;1893;52.526;13.360;2023-02-01T09:08:02;3.80;99.90
3756;DHT22;1893;52.526;13.360;2023-02-01T09:10:28;3.80;99.90
3756;DHT22;1893;52.526;13.360;2023-02-01T09:12:53;3.90;99.90
3756;DHT22;1893;52.526;13.360;2023-02-01T09:15:19;3.90;99.90
3756;DHT22;1893;52.526;13.360;2023-02-01T09:17:45;3.90;99.90
3756;DHT22;1893;52.526;13.360;2023-02-01T09:20:11;4.00;99.90
3756;DHT22;1893;52.526;13.360;2023-02-01T09:22:37;4.00;99.90
3756;DHT22;1893;52.526;13.360;2023-02-01T09:25:02;4.00;99.90
3756;DHT22;1893;52.526;13.360;2023-02-01T09:27:28;4.10;99.90
3756;DHT22;1893;52.526;13.360;2023-02-01T09:29:54;4.10;99.90
3756;DHT22;1893;52.526;13.360;2023-02-01T09:32:21;4.10;99.90
3756;DHT22;1893;52.526;13.360;2023-02-01T09:34:47;4.10;99.90
3756;DHT22;1893;52.526;13.360;2023-02-01T09:37:13;4.10;99.90
3756;DHT22;1893;52.526;13.360;2023-02-01T09:39:39;4.20;99.90
3756;DHT22;1893;52.526;13.360;2023-02-01T09:42:14;4.20;99.90
3756;DHT22;1893;52.526;13.360;2023-02-01T09:47:15;4.20;99.90
3756;DHT22;1893;52.526;13.360;2023-02-01T09:50:06;4.20;99.90
3756;DHT22;1893;52.526;13.360;2023-02-01T09:52:40;4.10;99.90
3756;DHT22;1893;52.526;13.360;2023-02-01T09:55:14;4.20;99.90
3756;DHT22;1893;52.526;13.360;2023-02-01T09:58:00;4.20;99.90
3756;DHT22;1893;52.526;13.360;2023-02-01T10:00:30;4.20;99.90
3756;DHT22;1893;52.526;13.360;2023-02-01T10:02:58;4.20;99.90
3756;DHT22;1893;52.526;13.360;2023-02-01T10:10:50;4.30;99.90
3756;DHT22;1893;52.526;13.360;2023-02-01T10:13:44;4.10;99.90
3756;DHT22;1893;52.526;13.360;2023-02-01T10:16:25;4.10;99.90
3756;DHT22;1893;52.526;13.360;2023-02-01T10:19:20;4.10;99.90
3756;DHT22;1893;52.526;13.360;2023-02-01T10:27:12;4.10;99.90
3756;DHT22;1893;52.526;13.360;2023-02-01T10:29:41;4.10;99.90
3756;DHT22;1893;52.526;13.360;2023-02-01T10:32:20;4.40;99.90
3756;DHT22;1893;52.526;13.360;2023-02-01T10:34:52;4.20;99.90
3756;DHT22;1893;52.526;13.360;2023-02-01T10:37:28;4.40;99.90
3756;DHT22;1893;52.526;13.360;2023-02-01T10:39:56;4.40;99.90
3756;DHT22;1893;52.526;13.360;2023-02-01T10:42:27;4.50;99.90
3756;DHT22;1893;52.526;13.360;2023-02-01T10:44:56;4.50;99.90
3756;DHT22;1893;52.526;13.360;2023-02-01T10:47:23;4.40;99.90
3756;DHT22;1893;52.526;13.360;2023-02-01T10:53:24;4.30;99.90
3756;DHT22;1893;52.526;13.360;2023-02-01T10:55:53;4.10;99.90
3756;DHT22;1893;52.526;13.360;2023-02-01T10:58:31;4.10;99.90
3756;DHT22;1893;52.526;13.360;2023-02-01T11:05:57;4.10;99.90
3756;DHT22;1893;52.526;13.360;2023-02-01T11:08:23;4.20;99.90
3756;DHT22;1893;52.526;13.360;2023-02-01T11:10:58;4.30;99.90
3756;DHT22;1893;52.526;13.360;2023-02-01T11:13:31;4.40;99.90
3756;DHT22;1893;52.526;13.360;2023-02-01T11:16:02;4.50;99.90
3756;DHT22;1893;52.526;13.360;2023-02-01T11:18:36;4.40;99.90
3756;DHT22;1893;52.526;13.360;2023-02-01T11:21:04;4.50;99.90
3756;DHT22;1893;52.526;13.360;2023-02-01T11:23:31;4.70;99.90
3756;DHT22;1893;52.526;13.360;2023-02-01T11:26:01;4.60;99.90
3756;DHT22;1893;52.526;13.360;2023-02-01T11:28:35;4.80;99.90
3756;DHT22;1893;52.526;13.360;2023-02-01T11:31:09;4.90;99.90
3756;DHT22;1893;52.526;13.360;2023-02-01T11:33:37;5.00;99.90
3756;DHT22;1893;52.526;13.360;2023-02-01T11:36:08;5.60;99.90
3756;DHT22;1893;52.526;13.360;2023-02-01T11:38:35;5.60;99.90
3756;DHT22;1893;52.526;13.360;2023-02-01T11:41:27;5.60;99.90
3756;DHT22;1893;52.526;13.360;2023-02-01T11:43:58;5.40;99.90
3756;DHT22;1893;52.526;13.360;2023-02-01T11:46:32;5.40;99.90
3756;DHT22;1893;52.526;13.360;2023-02-01T11:49:19;5.50;99.90
3756;DHT22;1893;52.526;13.360;2023-02-01T11:57:57;6.00;99.90
3756;DHT22;1893;52.526;13.360;2023-02-01T12:05:50;6.10;99.90
3756;DHT22;1893;52.526;13.360;2023-02-01T12:08:37;6.30;99.90
3756;DHT22;1893;52.526;13.360;2023-02-01T12:16:35;6.70;99.90
3756;DHT22;1893;52.526;13.360;2023-02-01T12:30:01;6.10;99.90
3756;DHT22;1893;52.526;13.360;2023-02-01T12:33:07;6.10;99.90
3756;DHT22;1893;52.526;13.360;2023-02-01T12:46:26;6.00;99.90
3756;DHT22;1893;52.526;13.360;2023-02-01T12:48:58;6.00;99.90
3756;DHT22;1893;52.526;13.360;2023-02-01T12:51:29;6.00;99.90
3756;DHT22;1893;52.526;13.360;2023-02-01T12:54:12;6.10;99.90
3756;DHT22;1893;52.526;13.360;2023-02-01T12:56:42;6.10;99.90
3756;DHT22;1893;52.526;13.360;2023-02-01T12:59:26;6.10;99.90
3756;DHT22;1893;52.526;13.360;2023-02-01T13:02:00;6.20;99.90
3756;DHT22;1893;52.526;13.360;2023-02-01T13:04:37;6.20;99.90
3756;DHT22;1893;52.526;13.360;2023-02-01T13:12:24;6.30;99.90
3756;DHT22;1893;52.526;13.360;2023-02-01T13:14:58;6.40;99.90
3756;DHT22;1893;52.526;13.360;2023-02-01T13:17:29;6.30;99.90
3756;DHT22;1893;52.526;13.360;2023-02-01T13:22:48;6.30;99.90
3756;DHT22;1893;52.526;13.360;2023-02-01T13:25:35;6.20;99.90
3756;DHT22;1893;52.526;13.360;2023-02-01T13:28:29;6.30;99.90
3756;DHT22;1893;52.526;13.360;2023-02-01T13:31:21;6.20;99.90
3756;DHT22;1893;52.526;13.360;2023-02-01T13:36:40;6.20;99.90
3756;DHT22;1893;52.526;13.360;2023-02-01T13:39:19;6.20;99.90
3756;DHT22;1893;52.526;13.360;2023-02-01T13:41:55;6.20;99.90
3756;DHT22;1893;52.526;13.360;2023-02-01T13:44:30;6.20;99.90
3756;DHT22;1893;52.526;13.360;2023-02-01T13:46:59;6.30;99.90
3756;DHT22;1893;52.526;13.360;2023-02-01T13:49:31;6.30;99.90
3756;DHT22;1893;52.526;13.360;2023-02-01T13:51:58;6.40;99.90
3756;DHT22;1893;52.526;13.360;2023-02-01T13:56:53;6.30;99.90
3756;DHT22;1893;52.526;13.360;2023-02-01T14:05:08;6.20;99.90
3756;DHT22;1893;52.526;13.360;2023-02-01T14:07:34;6.20;99.90
3756;DHT22;1893;52.526;13.360;2023-02-01T14:13:11;6.20;99.90
3756;DHT22;1893;52.526;13.360;2023-02-01T14:15:37;6.10;99.90
3756;DHT22;1893;52.526;13.360;2023-02-01T14:31:53;5.60;99.90
3756;DHT22;1893;52.526;13.360;2023-02-01T14:34:40;5.60;99.90
3756;DHT22;1893;52.526;13.360;2023-02-01T15:01:00;5.80;99.90
3756;DHT22;1893;52.526;13.360;2023-02-01T15:03:41;5.90;99.90
3756;DHT22;1893;52.526;13.360;2023-02-01T15:06:50;5.90;99.90
3756;DHT22;1893;52.526;13.360;2023-02-01T15:12:04;5.80;99.90
3756;DHT22;1893;52.526;13.360;2023-02-01T15:14:43;5.60;99.90
3756;DHT22;1893;52.526;13.360;2023-02-01T15:19:57;5.30;99.90
3756;DHT22;1893;52.526;13.360;2023-02-01T15:22:23;5.10;99.90
3756;DHT22;1893;52.526;13.360;2023-02-01T15:25:22;5.10;99.90
3756;DHT22;1893;52.526;13.360;2023-02-01T15:27:48;4.90;99.90
3756;DHT22;1893;52.526;13.360;2023-02-01T15:30:20;4.80;99.90
3756;DHT22;1893;52.526;13.360;2023-02-01T15:32:47;4.60;99.90
3756;DHT22;1893;52.526;13.360;2023-02-01T15:35:40;4.50;99.90
3756;DHT22;1893;52.526;13.360;2023-02-01T15:38:36;4.40;99.90
3756;DHT22;1893;52.526;13.360;2023-02-01T15:41:15;4.30;99.90
3756;DHT22;1893;52.526;13.360;2023-02-01T15:46:43;4.00;99.90
3756;DHT22;1893;52.526;13.360;2023-02-01T15:49:29;3.90;99.90
3756;DHT22;1893;52.526;13.360;2023-02-01T15:51:56;3.80;99.90
3756;DHT22;1893;52.526;13.360;2023-02-01T15:54:28;3.70;99.90
3756;DHT22;1893;52.526;13.360;2023-02-01T15:56:58;3.50;99.90
3756;DHT22;1893;52.526;13.360;2023-02-01T15:59:31;3.40;99.90
3756;DHT22;1893;52.526;13.360;2023-02-01T16:01:58;3.30;99.90
3756;DHT22;1893;52.526;13.360;2023-02-01T16:04:29;3.30;99.90
3756;DHT22;1893;52.526;13.360;2023-02-01T16:07:03;3.10;99.90
3756;DHT22;1893;52.526;13.360;2023-02-01T16:09:53;3.00;99.90
3756;DHT22;1893;52.526;13.360;2023-02-01T16:12:27;2.90;99.90
3756;DHT22;1893;52.526;13.360;2023-02-01T16:14:54;2.80;99.90
3756;DHT22;1893;52.526;13.360;2023-02-01T16:17:19;2.70;99.90
3756;DHT22;1893;52.526;13.360;2023-02-01T16:19:45;2.60;99.90
3756;DHT22;1893;52.526;13.360;2023-02-01T16:22:11;2.60;99.90
3756;DHT22;1893;52.526;13.360;2023-02-01T16:24:36;2.60;99.90
3756;DHT22;1893;52.526;13.360;2023-02-01T16:27:02;2.50;99.90
3756;DHT22;1893;52.526;13.360;2023-02-01T16:29:28;2.50;99.90
3756;DHT22;1893;52.526;13.360;2023-02-01T16:31:54;2.50;99.90
3756;DHT22;1893;52.526;13.360;2023-02-01T16:34:19;2.60;99.90
3756;DHT22;1893;52.526;13.360;2023-02-01T16:36:49;2.60;99.90
3756;DHT22;1893;52.526;13.360;2023-02-01T16:39:19;2.60;99.90
3756;DHT22;1893;52.526;13.360;2023-02-01T16:41:45;2.60;99.90
3756;DHT22;1893;52.526;13.360;2023-02-01T16:44:11;2.60;99.90
3756;DHT22;1893;52.526;13.360;2023-02-01T16:46:40;2.60;99.90
3756;DHT22;1893;52.526;13.360;2023-02-01T16:49:22;2.70;99.90
3756;DHT22;1893;52.526;13.360;2023-02-01T16:51:50;2.70;99.90
3756;DHT22;1893;52.526;13.360;2023-02-01T16:54:18;2.70;99.90
3756;DHT22;1893;52.526;13.360;2023-02-01T16:56:45;2.80;99.90
3756;DHT22;1893;52.526;13.360;2023-02-01T16:59:11;2.80;99.90
3756;DHT22;1893;52.526;13.360;2023-02-01T17:01:36;3.00;99.90
3756;DHT22;1893;52.526;13.360;2023-02-01T17:04:03;2.90;99.90
3756;DHT22;1893;52.526;13.360;2023-02-01T17:06:30;2.90;99.90
3756;DHT22;1893;52.526;13.360;2023-02-01T17:08:58;2.90;99.90
3756;DHT22;1893;52.526;13.360;2023-02-01T17:11:28;2.90;99.90
3756;DHT22;1893;52.526;13.360;2023-02-01T17:13:56;3.00;99.90
3756;DHT22;1893;52.526;13.360;2023-02-01T17:16:28;3.00;99.90
3756;DHT22;1893;52.526;13.360;2023-02-01T17:19:06;3.00;99.90
3756;DHT22;1893;52.526;13.360;2023-02-01T17:21:46;3.00;99.90
3756;DHT22;1893;52.526;13.360;2023-02-01T17:24:15;3.10;99.90
3756;DHT22;1893;52.526;13.360;2023-02-01T17:26:42;3.10;99.90
3756;DHT22;1893;52.526;13.360;2023-02-01T17:29:08;3.10;99.90
3756;DHT22;1893;52.526;13.360;2023-02-01T17:31:44;3.20;99.90
3756;DHT22;1893;52.526;13.360;2023-02-01T17:34:12;3.20;99.90
3756;DHT22;1893;52.526;13.360;2023-02-01T17:36:43;3.40;99.90
3756;DHT22;1893;52.526;13.360;2023-02-01T17:39:09;3.30;99.90
3756;DHT22;1893;52.526;13.360;2023-02-01T17:41:36;3.30;99.90
3756;DHT22;1893;52.526;13.360;2023-02-01T17:44:03;3.40;99.90
3756;DHT22;1893;52.526;13.360;2023-02-01T17:46:30;3.40;99.90
3756;DHT22;1893;52.526;13.360;2023-02-01T17:48:56;3.40;99.90
3756;DHT22;1893;52.526;13.360;2023-02-01T17:51:26;3.50;99.90
3756;DHT22;1893;52.526;13.360;2023-02-01T17:53:52;3.50;99.90
3756;DHT22;1893;52.526;13.360;2023-02-01T17:56:24;3.50;99.90
3756;DHT22;1893;52.526;13.360;2023-02-01T17:58:50;3.50;99.90
3756;DHT22;1893;52.526;13.360;2023-02-01T18:01:22;3.60;99.90
3756;DHT22;1893;52.526;13.360;2023-02-01T18:03:48;3.60;99.90
3756;DHT22;1893;52.526;13.360;2023-02-01T18:06:16;3.60;99.90
3756;DHT22;1893;52.526;13.360;2023-02-01T18:08:43;3.60;99.90
3756;DHT22;1893;52.526;13.360;2023-02-01T18:11:14;3.70;99.90
3756;DHT22;1893;52.526;13.360;2023-02-01T18:13:40;3.70;99.90
3756;DHT22;1893;52.526;13.360;2023-02-01T18:16:19;3.70;99.90
3756;DHT22;1893;52.526;13.360;2023-02-01T18:18:45;3.70;99.90
3756;DHT22;1893;52.526;13.360;2023-02-01T18:21:11;3.70;99.90
3756;DHT22;1893;52.526;13.360;2023-02-01T18:23:37;3.90;99.90
3756;DHT22;1893;52.526;13.360;2023-02-01T18:26:02;3.70;99.90
3756;DHT22;1893;52.526;13.360;2023-02-01T18:28:29;3.80;99.90
3756;DHT22;1893;52.526;13.360;2023-02-01T18:30:55;3.80;99.90
3756;DHT22;1893;52.526;13.360;2023-02-01T18:33:21;3.80;99.90
3756;DHT22;1893;52.526;13.360;2023-02-01T18:35:47;3.90;99.90
3756;DHT22;1893;52.526;13.360;2023-02-01T18:38:13;3.90;99.90
3756;DHT22;1893;52.526;13.360;2023-02-01T18:40:52;3.90;99.90
3756;DHT22;1893;52.526;13.360;2023-02-01T18:43:19;4.00;99.90
3756;DHT22;1893;52.526;13.360;2023-02-01T18:45:46;4.00;99.90
3756;DHT22;1893;52.526;13.360;2023-02-01T18:48:13;4.00;99.90
3756;DHT22;1893;52.526;13.360;2023-02-01T18:50:41;4.00;99.90
3756;DHT22;1893;52.526;13.360;2023-02-01T18:53:12;4.00;99.90
3756;DHT22;1893;52.526;13.360;2023-02-01T18:55:39;4.00;99.90
3756;DHT22;1893;52.526;13.360;2023-02-01T18:58:05;4.00;99.90
3756;DHT22;1893;52.526;13.360;2023-02-01T19:00:31;4.10;99.90
3756;DHT22;1893;52.526;13.360;2023-02-01T19:02:58;4.00;99.90
3756;DHT22;1893;52.526;13.360;2023-02-01T19:05:24;4.10;99.90
3756;DHT22;1893;52.526;13.360;2023-02-01T19:07:50;4.10;99.90
3756;DHT22;1893;52.526;13.360;2023-02-01T19:10:19;4.10;99.90